Time;durP1;ratioP1;P1;durP2;ratioP2;P2;SDS_P1;SDS_P2;PMS_P1;PMS_P2;Temp;Humidity;BMP_temperature;BMP_pressure;BME280_temperature;BME280_humidity;BME280_pressure;Samples;Min_cycle;Max_cycle;Signal;HPM_P1;HPM_P2
2022/07/27 00:00:31;;;;;;;1.98;1.45;;;;;;;22.34;49.53;100551.97;4133208;28;20411;-70
2022/07/27 00:02:35;;;;;;;2.17;1.42;;;;;;;22.37;49.34;100557.16;4132323;28;20045;-70
2022/07/27 00:04:39;;;;;;;3.60;1.42;;;;;;;22.35;49.58;100547.53;4132721;28;20046;-70
2022/07/27 00:06:43;;;;;;;;;;;;;;;22.24;49.60;100567.25;4132342;28;20034;-71
2022/07/27 00:08:46;;;;;;;2.40;1.30;;;;;;;22.20;49.73;100559.47;4133198;28;20396;-70
2022/07/27 00:10:49;;;;;;;1.95;1.20;;;;;;;22.16;49.71;100561.34;4133079;28;20042;-70
2022/07/27 00:12:52;;;;;;;4.05;1.50;;;;;;;22.21;49.74;100551.47;4130940;28;20558;-70
2022/07/27 00:14:57;;;;;;;3.92;1.40;;;;;;;22.24;49.60;100548.72;4132929;28;20500;-71
2022/07/27 00:17:01;;;;;;;2.25;1.40;;;;;;;22.20;49.60;100555.03;4132923;28;20130;-70
2022/07/27 00:19:04;;;;;;;3.00;1.30;;;;;;;22.13;49.89;100548.19;4131725;28;20039;-69
2022/07/27 00:21:13;;;;;;;1.88;0.90;;;;;;;22.06;50.16;100549.31;4132987;28;20074;-71
2022/07/27 00:23:16;;;;;;;1.90;1.25;;;;;;;22.17;49.83;100543.69;4130866;28;20050;-71
2022/07/27 00:25:19;;;;;;;1.63;1.20;;;;;;;22.14;49.93;100549.94;4132813;28;20046;-71
2022/07/27 00:27:22;;;;;;;2.15;1.50;;;;;;;22.06;50.28;100547.53;4132693;28;20061;-71
2022/07/27 00:29:25;;;;;;;2.58;1.20;;;;;;;22.04;50.28;100543.22;4131542;28;20042;-71
2022/07/27 00:31:28;;;;;;;1.85;1.13;;;;;;;21.94;50.59;100542.63;4132670;28;20054;-70
2022/07/27 00:33:31;;;;;;;2.85;1.20;;;;;;;21.99;50.54;100540.72;4114580;28;20090;-70
2022/07/27 00:35:34;;;;;;;2.65;1.13;;;;;;;21.96;50.49;100554.91;4132722;28;20116;-70
2022/07/27 00:37:39;;;;;;;2.17;1.42;;;;;;;22.01;50.45;100545.97;4131338;28;20038;-72
2022/07/27 00:39:43;;;;;;;3.30;1.50;;;;;;;22.14;50.25;100550.78;4132199;28;20530;-70
2022/07/27 00:41:46;;;;;;;6.45;2.00;;;;;;;22.01;50.41;100553.91;4131935;28;20504;-71
2022/07/27 00:43:50;;;;;;;3.35;1.75;;;;;;;22.07;50.30;100549.25;4132436;28;20042;-72
2022/07/27 00:45:53;;;;;;;;;;;;;;;21.89;50.58;100557.78;4132905;28;20042;-72
2022/07/27 00:47:56;;;;;;;2.05;1.40;;;;;;;21.85;50.76;100557.03;4132467;28;20024;-71
2022/07/27 00:50:00;;;;;;;2.17;1.40;;;;;;;21.94;50.62;100553.22;4132471;28;20436;-71
2022/07/27 00:52:03;;;;;;;2.67;1.60;;;;;;;22.07;50.20;100559.00;4130515;28;20042;-70
2022/07/27 00:54:07;;;;;;;3.22;1.67;;;;;;;21.92;50.58;100561.22;4132292;28;20038;-69
2022/07/27 00:56:11;;;;;;;3.17;2.10;;;;;;;21.93;50.56;100567.34;4132395;28;20089;-71
2022/07/27 00:58:14;;;;;;;2.78;1.98;;;;;;;21.87;50.63;100563.13;4132301;28;20054;-71
2022/07/27 01:00:18;;;;;;;5.03;1.98;;;;;;;21.89;50.61;100565.72;4131148;28;20528;-70
2022/07/27 01:02:21;;;;;;;3.20;1.60;;;;;;;21.88;50.72;100559.56;4131477;28;20042;-71
2022/07/27 01:04:25;;;;;;;2.42;1.40;;;;;;;21.77;50.74;100561.69;4132607;28;20058;-70
2022/07/27 01:06:28;;;;;;;4.50;1.40;;;;;;;21.89;50.46;100552.47;4132196;28;20126;-71
2022/07/27 01:08:31;;;;;;;3.55;1.60;;;;;;;21.89;50.39;100552.47;4132186;28;20046;-70
2022/07/27 01:10:35;;;;;;;1.95;1.40;;;;;;;21.87;50.55;100559.63;4132177;28;20062;-73
2022/07/27 01:12:38;;;;;;;;;;;;;;;21.71;50.83;100561.88;4130667;28;20404;-70
2022/07/27 01:14:41;;;;;;;3.88;1.50;;;;;;;21.70;51.04;100560.13;4131924;28;19968;-71
2022/07/27 01:16:44;;;;;;;1.98;1.40;;;;;;;21.77;50.84;100572.25;4132008;28;20045;-71
2022/07/27 01:18:49;;;;;;;5.82;1.63;;;;;;;21.96;50.28;100573.44;4132043;28;20042;-72
2022/07/27 01:20:51;;;;;;;2.67;1.48;;;;;;;21.84;50.54;100573.81;4130949;28;20044;-72
2022/07/27 01:22:56;;;;;;;2.40;1.50;;;;;;;21.86;50.79;100574.66;4131427;28;20492;-69
2022/07/27 01:24:59;;;;;;;3.00;1.33;;;;;;;21.84;50.60;100573.81;4131985;28;20045;-71
2022/07/27 01:27:03;;;;;;;4.05;1.95;;;;;;;21.97;50.25;100575.16;4131814;28;20129;-72
2022/07/27 01:29:06;;;;;;;5.07;1.80;;;;;;;21.91;50.47;100572.69;4146816;28;20148;-72
2022/07/27 01:31:09;;;;;;;2.53;1.48;;;;;;;21.88;50.36;100571.94;4131811;28;20050;-72
2022/07/27 01:33:13;;;;;;;4.95;1.85;;;;;;;21.89;50.53;100566.59;4131041;28;20117;-71
2022/07/27 01:35:16;;;;;;;3.83;1.70;;;;;;;21.88;50.38;100562.22;4130603;28;20049;-72
2022/07/27 01:37:18;;;;;;;3.50;1.70;;;;;;;21.83;50.69;100560.63;4131865;28;20125;-71
2022/07/27 01:39:23;;;;;;;5.97;1.80;;;;;;;21.84;50.63;100563.22;4130628;28;20416;-71
2022/07/27 01:41:26;;;;;;;3.78;1.77;;;;;;;21.74;50.74;100551.19;4131772;28;20137;-71
2022/07/27 01:43:28;;;;;;;5.28;1.70;;;;;;;21.77;50.86;100551.09;4130906;28;20046;-72
2022/07/27 01:45:31;;;;;;;8.05;1.73;;;;;;;21.78;50.81;100544.88;4131687;28;20133;-70
2022/07/27 01:47:34;;;;;;;4.97;1.85;;;;;;;21.76;51.08;100544.94;4131588;28;20038;-71
2022/07/27 01:49:37;;;;;;;2.80;1.70;;;;;;;21.69;50.91;100546.03;4131689;28;20049;-71
2022/07/27 01:51:40;;;;;;;3.45;1.88;;;;;;;21.79;50.91;100554.56;4129752;28;20052;-70
2022/07/27 01:53:43;;;;;;;2.60;1.55;;;;;;;21.80;50.67;100548.38;4114273;28;20065;-71
2022/07/27 01:55:48;;;;;;;2.65;1.45;;;;;;;21.75;50.83;100550.28;4146644;28;20038;-71
2022/07/27 01:57:51;;;;;;;3.30;1.58;;;;;;;21.80;50.85;100551.03;4130328;28;20043;-76
2022/07/27 01:59:54;;;;;;;5.65;1.50;;;;;;;21.77;50.66;100545.78;4131602;28;20133;-71
2022/07/27 02:01:57;;;;;;;2.65;1.75;;;;;;;21.91;50.40;100538.28;4130839;28;20145;-72
2022/07/27 02:03:59;;;;;;;4.45;1.30;;;;;;;21.74;50.68;100546.78;4131503;28;20049;-71
2022/07/27 02:06:04;;;;;;;4.80;1.60;;;;;;;21.77;50.40;100546.69;4131686;28;20038;-71
2022/07/27 02:08:08;;;;;;;1.38;1.10;;;;;;;21.68;50.72;100554.03;4130481;28;20161;-72
2022/07/27 02:10:11;;;;;;;1.88;1.20;;;;;;;21.53;51.15;100548.28;4130320;28;20050;-70
2022/07/27 02:14:36;;;;;;;2.75;1.23;;;;;;;21.51;51.27;100549.22;4130096;28;20050;-71
2022/07/27 02:16:39;;;;;;;2.10;1.25;;;;;;;21.58;51.08;100550.78;4131516;28;20045;-70
2022/07/27 02:18:42;;;;;;;2.15;1.38;;;;;;;21.43;51.71;100549.44;4131425;28;20034;-69
2022/07/27 02:20:47;;;;;;;2.05;1.10;;;;;;;21.39;51.49;100547.78;4131403;28;20073;-70
2022/07/27 02:22:53;;;;;;;2.42;1.10;;;;;;;21.36;51.47;100542.59;4130603;28;20038;-70
2022/07/27 02:24:56;;;;;;;2.30;1.17;;;;;;;21.35;51.76;100544.38;4131447;28;20038;-70
2022/07/27 02:26:58;;;;;;;3.25;1.30;;;;;;;21.37;51.63;100544.34;4131274;28;20038;-71
2022/07/27 02:29:04;;;;;;;1.80;1.10;;;;;;;21.40;51.39;100545.09;4130197;28;20054;-70
2022/07/27 02:31:07;;;;;;;2.28;1.20;;;;;;;21.37;51.68;100546.97;4131397;28;20048;-69
2022/07/27 02:33:10;;;;;;;3.95;1.27;;;;;;;21.37;51.70;100546.97;4130758;28;20631;-70
2022/07/27 02:35:13;;;;;;;5.97;1.83;;;;;;;21.41;51.39;100540.69;4131472;28;20066;-69
2022/07/27 02:37:22;;;;;;;3.00;1.48;;;;;;;21.28;51.55;100537.53;4131398;28;20042;-69
2022/07/27 02:39:24;;;;;;;6.55;1.60;;;;;;;21.24;51.83;100549.97;4130146;28;20046;-69
2022/07/27 02:41:27;;;;;;;3.35;1.60;;;;;;;21.22;51.86;100545.66;4130097;28;20133;-71
2022/07/27 02:43:30;;;;;;;2.97;1.80;;;;;;;21.27;52.03;100536.69;4130593;28;20057;-70
2022/07/27 02:45:35;;;;;;;5.97;1.80;;;;;;;21.26;51.64;100534.94;4131239;28;20060;-70
2022/07/27 02:47:38;;;;;;;3.60;2.10;;;;;;;21.24;51.95;100535.88;4130026;28;20043;-71
2022/07/27 02:49:41;;;;;;;3.92;1.75;;;;;;;21.22;51.98;100538.56;4131235;28;20043;-70
2022/07/27 02:51:44;;;;;;;4.20;1.63;;;;;;;21.28;51.72;100542.81;4130750;28;20133;-70
2022/07/27 02:53:47;;;;;;;2.83;1.55;;;;;;;21.24;51.81;100539.38;4131059;28;20058;-71
2022/07/27 02:55:50;;;;;;;1.98;1.30;;;;;;;21.28;51.89;100541.03;4131183;28;20038;-71
2022/07/27 02:57:53;;;;;;;6.55;1.40;;;;;;;21.27;51.87;100543.72;4131191;28;20042;-70
2022/07/27 02:59:56;;;;;;;2.25;1.50;;;;;;;21.30;51.80;100535.69;4131166;28;20076;-70
2022/07/27 03:02:00;;;;;;;3.95;1.40;;;;;;;21.49;51.21;100537.81;4131558;28;20054;-73
2022/07/27 03:04:03;;;;;;;2.58;1.30;;;;;;;21.35;51.47;100549.66;4134060;28;20042;-73
2022/07/27 03:06:07;;;;;;;3.20;1.42;;;;;;;21.31;51.60;100539.22;4134015;28;20518;-71
2022/07/27 03:08:10;;;;;;;3.10;1.30;;;;;;;21.20;52.13;100543.06;4134290;28;20035;-69
2022/07/27 03:10:13;;;;;;;3.65;1.42;;;;;;;21.08;52.35;100541.63;4134042;28;20062;-69
2022/07/27 03:12:16;;;;;;;4.60;1.45;;;;;;;21.05;52.39;100538.19;4133226;28;20035;-70
2022/07/27 03:14:19;;;;;;;3.38;1.33;;;;;;;21.04;52.71;100547.91;4132559;28;20042;-74
2022/07/27 03:16:22;;;;;;;2.97;1.70;;;;;;;21.22;51.91;100545.66;4133889;28;20134;-68
2022/07/27 03:18:26;;;;;;;5.78;1.75;;;;;;;21.05;52.09;100540.81;4132742;28;20050;-70
2022/07/27 03:20:29;;;;;;;1.98;1.33;;;;;;;21.00;52.11;100546.25;4132718;28;20497;-71
2022/07/27 03:22:32;;;;;;;3.70;1.50;;;;;;;20.96;52.47;100541.94;4133028;28;20193;-70
2022/07/27 03:24:35;;;;;;;1.67;1.15;;;;;;;20.95;52.54;100548.13;4133778;28;20046;-71
2022/07/27 03:26:38;;;;;;;3.33;1.30;;;;;;;20.98;52.60;100541.91;4133810;28;20085;-71
2022/07/27 03:28:41;;;;;;;3.13;1.40;;;;;;;20.87;52.88;100539.56;4133621;28;20137;-70
2022/07/27 03:30:45;;;;;;;3.67;1.20;;;;;;;20.93;53.00;100544.69;4132680;28;20145;-71
2022/07/27 03:32:48;;;;;;;2.67;1.10;;;;;;;20.86;52.99;100541.31;4132812;28;20405;-70
2022/07/27 03:34:52;;;;;;;3.17;1.20;;;;;;;20.90;53.23;100539.47;4132464;28;20057;-72
2022/07/27 03:36:55;;;;;;;5.60;1.80;;;;;;;20.96;53.02;100546.38;4132451;28;20048;-72
2022/07/27 03:38:58;;;;;;;4.18;1.50;;;;;;;20.93;52.56;100542.91;4133582;28;20416;-71
2022/07/27 03:41:07;;;;;;;5.55;1.30;;;;;;;20.80;52.75;100535.34;4133581;28;20054;-71
2022/07/27 03:43:11;;;;;;;2.92;1.13;;;;;;;20.91;52.55;100534.16;4132782;28;20685;-72
2022/07/27 03:45:14;;;;;;;4.32;1.60;;;;;;;20.84;52.62;100531.72;4133471;28;20038;-72
2022/07/27 03:47:16;;;;;;;2.72;1.50;;;;;;;20.82;52.50;100530.88;4133469;28;20046;-72
2022/07/27 03:49:19;;;;;;;4.25;1.65;;;;;;;20.82;52.73;100541.47;4132111;28;20133;-71
2022/07/27 03:51:24;;;;;;;6.25;1.60;;;;;;;20.77;52.82;100544.22;4133340;28;20049;-72
2022/07/27 03:53:27;;;;;;;;;;;;;;;20.75;52.64;100553.97;4133045;28;20509;-68
2022/07/27 03:55:30;;;;;;;3.75;1.52;;;;;;;20.74;52.57;100552.25;4133332;28;19944;-71
2022/07/27 03:57:33;;;;;;;5.43;1.50;;;;;;;20.70;52.34;100553.22;4132114;28;20333;-71
2022/07/27 03:59:36;;;;;;;3.25;1.38;;;;;;;20.75;52.10;100553.97;4133273;28;20097;-71
2022/07/27 04:01:39;;;;;;;2.75;1.13;;;;;;;20.70;52.44;100546.16;4131399;28;20038;-72
2022/07/27 04:03:42;;;;;;;5.25;1.17;;;;;;;20.75;51.79;100557.47;4131890;28;20038;-71
2022/07/27 04:05:46;;;;;;;2.67;1.48;;;;;;;20.53;52.49;100551.88;4132020;28;20468;-71
2022/07/27 04:07:50;;;;;;;4.22;1.30;;;;;;;20.69;51.92;100548.84;4133188;28;20546;-70
2022/07/27 04:09:56;;;;;;;1.75;1.00;;;;;;;20.65;52.27;100558.59;4133093;28;20046;-71
2022/07/27 04:12:00;;;;;;;4.43;1.40;;;;;;;20.56;51.83;100562.34;4131189;28;20113;-72
2022/07/27 04:14:04;;;;;;;;;;;;;;;20.44;52.00;100560.00;4114976;28;20039;-72
2022/07/27 04:16:07;;;;;;;2.17;1.10;;;;;;;20.42;52.25;100558.31;4133015;28;19948;-69
2022/07/27 04:18:12;;;;;;;4.50;1.65;;;;;;;20.41;52.34;100565.34;4131784;28;20042;-71
2022/07/27 04:20:15;;;;;;;3.20;1.30;;;;;;;20.56;52.18;100565.00;4132958;28;20128;-72
2022/07/27 04:22:18;;;;;;;3.20;1.40;;;;;;;20.61;51.99;100566.66;4132157;28;20038;-71
2022/07/27 04:24:23;;;;;;;3.60;1.30;;;;;;;20.55;51.77;100568.53;4131607;28;20053;-70
2022/07/27 04:26:26;;;;;;;3.25;1.33;;;;;;;20.68;51.68;100562.97;4132783;28;20046;-71
2022/07/27 04:28:28;;;;;;;2.35;1.38;;;;;;;20.53;52.16;100565.06;4132710;28;20038;-70
2022/07/27 04:30:31;;;;;;;2.33;1.20;;;;;;;20.50;52.41;100565.16;4131438;28;20081;-70
2022/07/27 04:32:35;;;;;;;2.45;1.15;;;;;;;20.52;52.19;100563.31;4132014;28;20439;-70
2022/07/27 04:34:38;;;;;;;3.40;1.30;;;;;;;20.53;52.37;100559.78;4131340;28;20077;-69
2022/07/27 04:36:41;;;;;;;2.83;1.42;;;;;;;20.49;52.75;100568.69;4132660;28;20046;-70
2022/07/27 04:38:44;;;;;;;1.58;0.80;;;;;;;20.50;52.45;100565.16;4132683;28;20412;-70
2022/07/27 04:40:48;;;;;;;5.30;1.48;;;;;;;20.67;52.34;100566.50;4132603;28;20046;-70
2022/07/27 04:42:51;;;;;;;3.10;1.35;;;;;;;20.73;52.10;100566.34;4131781;28;20389;-69
2022/07/27 04:44:54;;;;;;;3.10;1.65;;;;;;;20.82;51.73;100565.25;4132581;28;20038;-70
2022/07/27 04:46:56;;;;;;;3.67;1.40;;;;;;;20.68;52.20;100574.41;4132493;28;20038;-70
2022/07/27 04:48:59;;;;;;;6.68;1.30;;;;;;;20.83;51.39;100583.69;4147319;28;20077;-71
2022/07/27 04:51:03;;;;;;;4.05;1.73;;;;;;;20.71;51.80;100578.75;4132470;28;20064;-71
2022/07/27 04:53:05;;;;;;;4.45;1.30;;;;;;;20.53;52.45;100586.19;4131630;28;20042;-72
2022/07/27 04:55:09;;;;;;;4.00;1.50;;;;;;;20.58;52.49;100591.34;4132370;28;20105;-69
2022/07/27 04:57:14;;;;;;;3.28;1.30;;;;;;;20.34;53.06;100590.19;4131139;28;20403;-72
2022/07/27 04:59:16;;;;;;;3.35;1.05;;;;;;;20.40;53.06;100595.34;4132341;28;20034;-71
2022/07/27 05:01:21;;;;;;;3.63;0.95;;;;;;;20.28;53.23;100595.63;4132295;28;20473;-72
2022/07/27 05:03:24;;;;;;;3.17;1.17;;;;;;;20.31;53.53;100595.53;4130347;28;20523;-70
2022/07/27 05:05:27;;;;;;;3.00;1.45;;;;;;;20.34;53.58;100600.75;4130869;28;20042;-69
2022/07/27 05:07:30;;;;;;;3.78;1.20;;;;;;;20.27;53.37;100599.16;4132196;28;20128;-72
2022/07/27 05:09:33;;;;;;;3.80;1.50;;;;;;;20.30;53.69;100599.09;4132101;28;20121;-71
2022/07/27 05:11:36;;;;;;;4.18;1.48;;;;;;;20.29;53.66;100598.22;4131890;28;20042;-72
2022/07/27 05:13:40;;;;;;;2.42;1.23;;;;;;;20.29;53.91;100607.91;4131742;28;20054;-72
2022/07/27 05:15:43;;;;;;;;;;;;;;;20.15;53.82;100605.59;4132487;28;20133;-71
2022/07/27 05:17:57;;;;;;;4.13;1.45;;;;;;;20.28;53.86;100608.81;4132130;28;19929;-71
2022/07/27 05:20:00;;;;;;;1.75;0.95;;;;;;;20.27;53.77;100615.00;4130892;28;20159;-70
2022/07/27 05:22:03;;;;;;;3.65;1.13;;;;;;;20.09;54.18;100609.22;4131256;28;20132;-71
2022/07/27 05:24:06;;;;;;;2.97;1.00;;;;;;;20.11;54.69;100606.59;4130572;28;20057;-71
2022/07/27 05:26:09;;;;;;;1.67;0.95;;;;;;;20.22;54.49;100617.75;4132037;28;20058;-71
2022/07/27 05:28:12;;;;;;;3.53;1.10;;;;;;;20.20;54.50;100616.91;4131916;28;20049;-71
2022/07/27 05:30:16;;;;;;;5.78;1.50;;;;;;;20.28;54.42;100614.97;4130488;28;20132;-71
2022/07/27 05:32:20;;;;;;;1.20;1.02;;;;;;;20.29;54.07;100614.06;4131164;28;20415;-70
2022/07/27 05:34:23;;;;;;;4.30;1.23;;;;;;;20.25;54.47;100609.75;4131739;28;20046;-71
2022/07/27 05:36:26;;;;;;;6.90;1.40;;;;;;;20.42;53.81;100624.34;4131819;28;20053;-71
2022/07/27 05:38:30;;;;;;;7.22;2.08;;;;;;;20.46;53.87;100623.34;4131800;28;20042;-72
2022/07/27 05:40:33;;;;;;;7.55;1.52;;;;;;;20.30;54.28;100617.59;4130468;28;20093;-72
2022/07/27 05:42:36;;;;;;;2.30;1.13;;;;;;;20.35;54.03;100623.59;4131068;28;20125;-69
2022/07/27 05:44:39;;;;;;;5.32;1.60;;;;;;;20.33;54.36;100617.50;4130422;28;20528;-71
2022/07/27 05:46:43;;;;;;;4.80;1.40;;;;;;;20.35;54.12;100620.97;4131696;28;20054;-71
2022/07/27 05:48:47;;;;;;;7.57;1.48;;;;;;;20.31;54.13;100617.53;4131679;28;20128;-71
2022/07/27 05:50:50;;;;;;;4.88;1.42;;;;;;;20.32;54.50;100623.69;4131618;28;20043;-71
2022/07/27 05:52:53;;;;;;;7.88;1.52;;;;;;;20.35;54.49;100629.75;4129700;28;20444;-72
2022/07/27 05:54:56;;;;;;;6.03;1.52;;;;;;;20.35;54.70;100623.59;4131747;28;20074;-71
2022/07/27 05:56:59;;;;;;;4.60;2.05;;;;;;;20.47;54.21;100628.63;4114309;28;20169;-70
2022/07/27 05:59:02;;;;;;;7.00;2.35;;;;;;;20.40;54.69;100632.31;4146843;28;20351;-72
2022/07/27 06:01:09;;;;;;;5.05;2.75;;;;;;;20.43;54.65;100626.06;4131658;28;20112;-71
2022/07/27 06:03:13;;;;;;;4.03;1.80;;;;;;;20.45;54.57;100624.25;4129459;28;20443;-72
2022/07/27 06:05:16;;;;;;;2.92;1.60;;;;;;;20.53;54.09;100627.56;4131525;28;20077;-69
2022/07/27 06:09:40;;;;;;;5.57;1.92;;;;;;;20.54;53.85;100624.03;4131407;28;20125;-71
2022/07/27 06:11:43;;;;;;;4.13;1.80;;;;;;;20.55;53.85;100625.78;4130805;28;20520;-71
2022/07/27 06:13:46;;;;;;;6.28;1.73;;;;;;;20.37;54.56;100627.97;4131262;28;20572;-71
2022/07/27 06:15:49;;;;;;;7.05;1.70;;;;;;;20.35;54.63;100631.53;4131488;28;20038;-71
2022/07/27 06:17:53;;;;;;;5.88;2.17;;;;;;;20.46;54.36;100632.16;4131469;28;20038;-71
2022/07/27 06:19:57;;;;;;;8.07;2.28;;;;;;;20.47;54.07;100631.25;4131465;28;20125;-71
2022/07/27 06:22:00;;;;;;;7.40;2.00;;;;;;;20.43;54.21;100642.78;4130919;28;20324;-71
2022/07/27 06:24:04;;;;;;;5.80;1.95;;;;;;;20.45;53.80;100640.97;4131281;28;20077;-71
2022/07/27 06:26:07;;;;;;;6.43;1.83;;;;;;;20.36;53.99;100630.63;4130190;28;20066;-71
2022/07/27 06:28:10;;;;;;;2.77;1.50;;;;;;;20.34;54.43;100632.41;4131370;28;20050;-71
2022/07/27 06:30:16;;;;;;;4.32;1.40;;;;;;;20.29;55.22;100632.53;4130028;28;20376;-72
2022/07/27 06:32:19;;;;;;;5.90;1.60;;;;;;;20.38;54.24;100628.81;4130657;28;20057;-72
2022/07/27 06:34:21;;;;;;;8.50;1.70;;;;;;;20.39;54.67;100635.84;4131296;28;20038;-71
2022/07/27 06:36:26;;;;;;;7.55;1.95;;;;;;;20.41;54.59;100631.38;4131873;28;20046;-72
2022/07/27 06:38:29;;;;;;;4.32;1.38;;;;;;;20.45;55.13;100635.69;4133248;28;20073;-72
2022/07/27 06:40:32;;;;;;;5.03;1.38;;;;;;;20.49;54.12;100640.00;4133356;28;20082;-71
2022/07/27 06:42:35;;;;;;;10.50;1.42;;;;;;;20.47;54.47;100640.94;4133745;28;20041;-72
2022/07/27 06:44:38;;;;;;;4.65;1.50;;;;;;;20.58;54.20;100647.69;4134366;28;20385;-71
2022/07/27 06:46:41;;;;;;;2.97;1.20;;;;;;;20.54;53.83;100638.09;4133233;28;20050;-71
2022/07/27 06:48:44;;;;;;;3.42;1.42;;;;;;;20.62;53.68;100635.28;4134388;28;20038;-71
2022/07/27 06:50:47;;;;;;;8.25;1.60;;;;;;;20.48;54.17;100632.97;4134246;28;20073;-71
2022/07/27 06:52:51;;;;;;;3.92;1.20;;;;;;;20.40;54.23;100641.09;4133461;28;20125;-72
2022/07/27 06:54:55;;;;;;;6.28;1.50;;;;;;;20.48;54.30;100651.44;4132999;28;20044;-72
2022/07/27 06:56:58;;;;;;;3.85;1.60;;;;;;;20.52;53.91;100647.84;4134259;28;20045;-72
2022/07/27 06:59:01;;;;;;;4.72;1.33;;;;;;;20.46;54.25;100650.63;4132967;28;20523;-71
2022/07/27 07:01:04;;;;;;;2.65;1.20;;;;;;;20.51;53.95;100656.66;4134125;28;20037;-71
2022/07/27 07:03:07;;;;;;;8.95;1.50;;;;;;;20.66;53.54;100657.19;4133810;28;20551;-69
2022/07/27 07:05:10;;;;;;;6.28;1.88;;;;;;;20.64;53.61;100661.66;4132892;28;20038;-70
2022/07/27 07:07:13;;;;;;;5.38;1.42;;;;;;;20.60;53.52;100654.72;4132775;28;20527;-71
2022/07/27 07:09:17;;;;;;;5.10;1.65;;;;;;;20.46;53.85;100661.19;4132798;28;20053;-73
2022/07/27 07:11:20;;;;;;;4.97;1.33;;;;;;;20.67;53.45;100661.63;4132810;28;20250;-72
2022/07/27 07:13:24;;;;;;;6.75;1.83;;;;;;;20.67;53.60;100654.53;4131878;28;20042;-72
2022/07/27 07:15:26;;;;;;;2.97;1.25;;;;;;;20.75;54.01;100657.03;4134072;28;20112;-72
2022/07/27 07:17:29;;;;;;;6.00;1.77;;;;;;;20.97;53.26;100661.75;4133894;28;20039;-73
2022/07/27 07:19:32;;;;;;;3.28;1.20;;;;;;;21.18;52.60;100666.47;4132736;28;20053;-71
2022/07/27 07:21:35;;;;;;;4.30;1.20;;;;;;;21.09;52.62;100664.09;4133513;28;20042;-72
2022/07/27 07:23:40;;;;;;;8.10;1.75;;;;;;;21.19;52.28;100672.66;4133688;28;20047;-72
2022/07/27 07:25:44;;;;;;;9.55;1.90;;;;;;;21.27;51.83;100666.25;4133817;28;20086;-72
2022/07/27 07:27:47;;;;;;;6.88;1.85;;;;;;;21.23;51.70;100667.22;4133818;28;20070;-72
2022/07/27 07:29:50;;;;;;;6.72;1.83;;;;;;;21.27;51.24;100668.91;4132473;28;20556;-72
2022/07/27 07:31:53;;;;;;;3.38;1.15;;;;;;;21.30;51.39;100670.56;4132866;28;20048;-72
2022/07/27 07:33:56;;;;;;;6.03;1.65;;;;;;;21.20;51.34;100666.44;4132403;28;20050;-71
2022/07/27 07:35:59;;;;;;;4.18;1.30;;;;;;;21.16;51.74;100675.34;4133704;28;20412;-71
2022/07/27 07:38:14;;;;;;;5.70;1.85;;;;;;;21.04;51.35;100671.25;4133675;28;20101;-73
2022/07/27 07:40:18;;;;;;;3.92;1.40;;;;;;;21.08;51.58;100672.91;4133637;28;20476;-71
2022/07/27 07:42:51;;;;;;;3.22;1.30;;;;;;;21.06;51.27;100677.38;4132807;28;20081;-73
2022/07/27 07:44:54;;;;;;;7.63;1.77;;;;;;;21.09;50.93;100674.66;4133498;28;20046;-69
2022/07/27 07:46:57;;;;;;;6.82;1.98;;;;;;;21.01;51.17;100674.88;4133475;28;20066;-72
2022/07/27 07:49:00;;;;;;;6.50;2.00;;;;;;;21.00;51.73;100675.75;4132063;28;20532;-72
2022/07/27 07:51:03;;;;;;;5.60;1.50;;;;;;;21.00;51.59;100677.56;4132096;28;20125;-72
2022/07/27 07:53:06;;;;;;;7.38;1.92;;;;;;;21.00;51.84;100674.91;4132989;28;20053;-73
2022/07/27 07:55:10;;;;;;;3.42;1.55;;;;;;;20.94;51.41;100683.84;4133416;28;20046;-72
2022/07/27 07:57:13;;;;;;;5.57;1.67;;;;;;;21.16;51.64;100675.34;4133283;28;20110;-72
2022/07/27 07:59:18;;;;;;;6.40;1.67;;;;;;;21.21;51.12;100676.09;4133309;28;20559;-73
2022/07/27 08:01:21;;;;;;;3.40;1.30;;;;;;;21.28;50.11;100680.31;4133218;28;20042;-73
2022/07/27 08:03:24;;;;;;;5.88;1.17;;;;;;;21.49;49.72;100670.94;4115068;28;20077;-72
2022/07/27 08:05:27;;;;;;;4.77;1.40;;;;;;;21.53;49.57;100675.25;4148189;28;20500;-74
2022/07/27 08:07:31;;;;;;;4.93;1.30;;;;;;;21.60;49.37;100670.69;4133136;28;20534;-74
2022/07/27 08:09:33;;;;;;;5.80;1.08;;;;;;;21.71;47.77;100673.00;4131867;28;20587;-72
2022/07/27 08:11:38;;;;;;;7.20;1.23;;;;;;;21.68;47.64;100679.25;4132465;28;20042;-71
2022/07/27 08:13:41;;;;;;;6.32;1.42;;;;;;;21.71;47.62;100675.66;4132818;28;20081;-73
2022/07/27 08:15:45;;;;;;;6.03;1.20;;;;;;;21.79;47.41;100677.16;4133039;28;20038;-72
2022/07/27 08:17:48;;;;;;;;;;;;;;;21.74;47.88;100672.91;4133454;28;20049;-73
2022/07/27 08:19:51;;;;;;;7.43;1.50;;;;;;;21.81;47.18;100674.47;4131758;28;19965;-72
2022/07/27 08:21:54;;;;;;;2.90;0.90;;;;;;;21.76;47.04;100676.41;4132167;28;20060;-70
2022/07/27 08:23:57;;;;;;;4.40;1.50;;;;;;;21.87;46.03;100679.59;4115496;28;20051;-71
2022/07/27 08:26:04;;;;;;;4.60;1.45;;;;;;;21.82;46.57;100676.22;4131674;28;20092;-71
2022/07/27 08:28:10;;;;;;;4.57;1.13;;;;;;;21.85;46.82;100680.56;4132908;28;20042;-70
2022/07/27 08:30:13;;;;;;;5.55;1.50;;;;;;;21.83;46.52;100672.66;4132861;28;20034;-72
2022/07/27 08:32:17;;;;;;;4.22;1.10;;;;;;;21.80;46.25;100678.06;4131995;28;20042;-71
2022/07/27 08:34:20;;;;;;;6.45;1.80;;;;;;;21.93;45.87;100676.78;4132663;28;20125;-71
2022/07/27 08:36:23;;;;;;;2.80;1.17;;;;;;;22.06;45.51;100668.44;4131475;28;20419;-72
2022/07/27 08:38:26;;;;;;;4.55;1.50;;;;;;;22.01;46.16;100667.75;4131437;28;20050;-73
2022/07/27 08:40:29;;;;;;;4.22;1.35;;;;;;;22.17;45.80;100674.31;4132686;28;20038;-71
2022/07/27 08:42:44;;;;;;;3.45;1.52;;;;;;;22.50;44.82;100668.88;4130819;28;20154;-73
2022/07/27 08:44:52;;;;;;;4.10;1.10;;;;;;;22.48;45.03;100666.28;4132667;28;20044;-71
2022/07/27 08:46:56;;;;;;;4.05;1.30;;;;;;;22.71;44.64;100663.81;4132537;28;20500;-71
2022/07/27 08:49:01;;;;;;;4.50;1.35;;;;;;;22.70;45.54;100659.44;4132547;28;20042;-70
2022/07/27 08:51:06;;;;;;;6.38;1.20;;;;;;;22.70;44.93;100664.72;4132357;28;20097;-70
2022/07/27 08:53:10;;;;;;;;;;;;;;;22.52;45.52;100669.72;4130802;28;20066;-73
2022/07/27 08:55:13;;;;;;;3.30;1.10;;;;;;;22.56;45.71;100662.50;4132438;28;20028;-72
2022/07/27 08:57:16;;;;;;;3.05;1.13;;;;;;;22.86;45.01;100665.94;4132446;28;20511;-70
2022/07/27 08:59:19;;;;;;;3.45;1.50;;;;;;;22.85;44.03;100661.53;4130585;28;20050;-72
2022/07/27 09:01:22;;;;;;;5.25;1.17;;;;;;;22.82;44.48;100665.19;4132349;28;20496;-70
2022/07/27 09:03:25;;;;;;;6.30;1.50;;;;;;;22.74;44.25;100664.56;4131485;28;20507;-73
2022/07/27 09:05:30;;;;;;;4.40;1.15;;;;;;;22.82;44.52;100664.31;4132219;28;20452;-73
2022/07/27 09:07:39;;;;;;;4.35;1.35;;;;;;;23.03;44.18;100657.44;4131116;28;20101;-72
2022/07/27 09:09:47;;;;;;;5.55;1.52;;;;;;;22.84;44.49;100658.03;4130927;28;20065;-71
2022/07/27 09:12:05;;;;;;;7.13;1.90;;;;;;;23.02;44.91;100663.63;4114116;28;20053;-71
2022/07/27 09:14:11;;;;;;;5.65;1.48;;;;;;;22.79;45.97;100664.41;4130830;28;20050;-73
2022/07/27 09:16:13;;;;;;;4.97;1.80;;;;;;;22.79;46.14;100667.94;4132159;28;20101;-71
2022/07/27 09:18:23;;;;;;;5.35;1.48;;;;;;;22.71;46.20;100664.69;4130896;28;20141;-72
2022/07/27 09:20:26;;;;;;;5.65;1.35;;;;;;;22.68;46.15;100667.44;4131941;28;20568;-71
2022/07/27 09:22:42;;;;;;;3.78;1.45;;;;;;;22.70;46.00;100668.22;4131280;28;20046;-72
2022/07/27 09:25:01;;;;;;;9.63;1.75;;;;;;;22.80;45.73;100666.16;4131963;28;20405;-72
2022/07/27 09:27:04;;;;;;;3.72;1.30;;;;;;;22.66;46.35;100671.91;4132019;28;20046;-72
2022/07/27 09:29:10;;;;;;;5.72;1.77;;;;;;;22.88;45.62;100658.81;4146960;28;20132;-72
2022/07/27 09:31:15;;;;;;;10.75;1.75;;;;;;;22.91;45.86;100666.66;4130829;28;20042;-72
2022/07/27 09:33:18;;;;;;;6.15;1.73;;;;;;;22.84;45.88;100666.00;4131032;28;20399;-73
2022/07/27 09:35:24;;;;;;;7.25;1.55;;;;;;;22.83;45.98;100663.41;4130563;28;20408;-72
2022/07/27 09:37:28;;;;;;;7.82;1.65;;;;;;;22.95;45.43;100662.97;4131858;28;20074;-73
2022/07/27 09:39:32;;;;;;;6.97;1.20;;;;;;;22.89;45.52;100660.53;4130694;28;20046;-72
2022/07/27 09:41:43;;;;;;;4.03;1.73;;;;;;;22.96;45.06;100658.56;4131578;28;20536;-72